sensor_id;sensor_type;location;lat;lon;timestamp;temperature;humidity
35129;DHT22;21301;43.626;10.580;2023-03-03T00:00:39;8.80;99.90
35129;DHT22;21301;43.626;10.580;2023-03-03T00:03:07;8.90;99.90
35129;DHT22;21301;43.626;10.580;2023-03-03T00:05:34;8.80;99.90
35129;DHT22;21301;43.626;10.580;2023-03-03T00:08:00;8.80;99.90
35129;DHT22;21301;43.626;10.580;2023-03-03T00:10:27;8.90;99.90
35129;DHT22;21301;43.626;10.580;2023-03-03T00:12:53;9.00;99.90
35129;DHT22;21301;43.626;10.580;2023-03-03T00:15:21;9.00;99.90
35129;DHT22;21301;43.626;10.580;2023-03-03T00:17:47;9.10;99.90
35129;DHT22;21301;43.626;10.580;2023-03-03T00:22:54;9.10;99.90
35129;DHT22;21301;43.626;10.580;2023-03-03T00:25:32;9.10;99.90
35129;DHT22;21301;43.626;10.580;2023-03-03T00:28:19;9.10;99.90
35129;DHT22;21301;43.626;10.580;2023-03-03T00:30:47;9.20;99.90
35129;DHT22;21301;43.626;10.580;2023-03-03T00:33:33;9.10;99.90
35129;DHT22;21301;43.626;10.580;2023-03-03T00:38:39;9.00;99.90
35129;DHT22;21301;43.626;10.580;2023-03-03T00:41:22;9.00;99.90
35129;DHT22;21301;43.626;10.580;2023-03-03T00:43:48;9.10;99.90
35129;DHT22;21301;43.626;10.580;2023-03-03T00:46:17;9.10;99.90
35129;DHT22;21301;43.626;10.580;2023-03-03T00:48:45;9.00;99.90
35129;DHT22;21301;43.626;10.580;2023-03-03T00:51:28;9.00;99.90
35129;DHT22;21301;43.626;10.580;2023-03-03T00:53:56;9.10;99.90
35129;DHT22;21301;43.626;10.580;2023-03-03T00:56:22;9.00;99.90
35129;DHT22;21301;43.626;10.580;2023-03-03T00:58:48;9.00;99.90
35129;DHT22;21301;43.626;10.580;2023-03-03T01:01:17;9.00;99.90
35129;DHT22;21301;43.626;10.580;2023-03-03T01:03:47;9.00;99.90
35129;DHT22;21301;43.626;10.580;2023-03-03T01:06:12;9.10;99.90
35129;DHT22;21301;43.626;10.580;2023-03-03T01:08:40;9.10;99.90
35129;DHT22;21301;43.626;10.580;2023-03-03T01:11:12;9.20;99.90
35129;DHT22;21301;43.626;10.580;2023-03-03T01:13:42;9.20;99.90
35129;DHT22;21301;43.626;10.580;2023-03-03T01:16:09;9.30;99.90
35129;DHT22;21301;43.626;10.580;2023-03-03T01:18:35;9.40;99.90
35129;DHT22;21301;43.626;10.580;2023-03-03T01:21:01;9.40;99.90
35129;DHT22;21301;43.626;10.580;2023-03-03T01:23:28;9.40;99.90
35129;DHT22;21301;43.626;10.580;2023-03-03T01:25:55;9.50;99.90
35129;DHT22;21301;43.626;10.580;2023-03-03T01:28:20;9.50;99.90
35129;DHT22;21301;43.626;10.580;2023-03-03T01:30:46;9.20;99.90
35129;DHT22;21301;43.626;10.580;2023-03-03T01:33:12;9.30;99.90
35129;DHT22;21301;43.626;10.580;2023-03-03T01:35:43;9.40;99.90
35129;DHT22;21301;43.626;10.580;2023-03-03T01:38:09;9.30;99.90
35129;DHT22;21301;43.626;10.580;2023-03-03T01:40:35;9.40;99.90
35129;DHT22;21301;43.626;10.580;2023-03-03T01:43:02;9.40;99.90
35129;DHT22;21301;43.626;10.580;2023-03-03T01:45:30;9.30;99.90
35129;DHT22;21301;43.626;10.580;2023-03-03T01:48:06;9.30;99.90
35129;DHT22;21301;43.626;10.580;2023-03-03T01:53:06;9.40;99.90
35129;DHT22;21301;43.626;10.580;2023-03-03T01:55:36;9.30;99.90
35129;DHT22;21301;43.626;10.580;2023-03-03T02:01:00;9.20;99.90
35129;DHT22;21301;43.626;10.580;2023-03-03T02:03:28;8.90;99.90
35129;DHT22;21301;43.626;10.580;2023-03-03T02:05:57;8.60;99.90
35129;DHT22;21301;43.626;10.580;2023-03-03T02:08:33;8.50;99.90
35129;DHT22;21301;43.626;10.580;2023-03-03T02:11:01;8.50;99.90
35129;DHT22;21301;43.626;10.580;2023-03-03T02:13:27;8.80;99.90
35129;DHT22;21301;43.626;10.580;2023-03-03T02:15:54;8.80;99.90
35129;DHT22;21301;43.626;10.580;2023-03-03T02:18:22;8.50;99.90
35129;DHT22;21301;43.626;10.580;2023-03-03T02:23:37;8.30;99.90
35129;DHT22;21301;43.626;10.580;2023-03-03T02:26:17;8.20;99.90
35129;DHT22;21301;43.626;10.580;2023-03-03T02:28:44;8.20;99.90
35129;DHT22;21301;43.626;10.580;2023-03-03T02:31:14;8.40;99.90
35129;DHT22;21301;43.626;10.580;2023-03-03T02:33:47;8.70;99.90
35129;DHT22;21301;43.626;10.580;2023-03-03T02:36:18;8.80;99.90
35129;DHT22;21301;43.626;10.580;2023-03-03T02:44:03;9.10;99.90
35129;DHT22;21301;43.626;10.580;2023-03-03T02:46:35;9.10;99.90
35129;DHT22;21301;43.626;10.580;2023-03-03T02:49:03;9.10;99.90
35129;DHT22;21301;43.626;10.580;2023-03-03T02:51:29;9.20;99.90
35129;DHT22;21301;43.626;10.580;2023-03-03T02:53:55;9.10;99.90
35129;DHT22;21301;43.626;10.580;2023-03-03T02:56:23;8.90;99.90
35129;DHT22;21301;43.626;10.580;2023-03-03T02:58:49;9.00;99.90
35129;DHT22;21301;43.626;10.580;2023-03-03T03:01:16;9.10;99.90
35129;DHT22;21301;43.626;10.580;2023-03-03T03:03:42;9.00;99.90
35129;DHT22;21301;43.626;10.580;2023-03-03T03:06:09;9.00;99.90
35129;DHT22;21301;43.626;10.580;2023-03-03T03:08:35;9.00;99.90
35129;DHT22;21301;43.626;10.580;2023-03-03T03:11:01;9.00;99.90
35129;DHT22;21301;43.626;10.580;2023-03-03T03:13:28;9.10;99.90
35129;DHT22;21301;43.626;10.580;2023-03-03T03:15:55;9.20;99.90
35129;DHT22;21301;43.626;10.580;2023-03-03T03:18:22;9.20;99.90
35129;DHT22;21301;43.626;10.580;2023-03-03T03:20:49;9.10;99.90
35129;DHT22;21301;43.626;10.580;2023-03-03T03:23:15;9.10;99.90
35129;DHT22;21301;43.626;10.580;2023-03-03T03:25:41;8.90;99.90
35129;DHT22;21301;43.626;10.580;2023-03-03T03:28:15;9.00;99.90
35129;DHT22;21301;43.626;10.580;2023-03-03T03:30:42;9.00;99.90
35129;DHT22;21301;43.626;10.580;2023-03-03T03:33:10;9.20;99.90
35129;DHT22;21301;43.626;10.580;2023-03-03T03:35:36;9.30;99.90
35129;DHT22;21301;43.626;10.580;2023-03-03T03:38:03;9.30;99.90
35129;DHT22;21301;43.626;10.580;2023-03-03T03:40:29;9.30;99.90
35129;DHT22;21301;43.626;10.580;2023-03-03T03:42:55;9.40;99.90
35129;DHT22;21301;43.626;10.580;2023-03-03T03:45:22;9.30;99.90
35129;DHT22;21301;43.626;10.580;2023-03-03T03:47:48;9.40;99.90
35129;DHT22;21301;43.626;10.580;2023-03-03T03:50:14;9.40;99.90
35129;DHT22;21301;43.626;10.580;2023-03-03T03:52:42;9.30;99.90
35129;DHT22;21301;43.626;10.580;2023-03-03T03:55:09;9.30;99.90
35129;DHT22;21301;43.626;10.580;2023-03-03T03:57:37;9.10;99.90
35129;DHT22;21301;43.626;10.580;2023-03-03T04:00:04;9.10;99.90
35129;DHT22;21301;43.626;10.580;2023-03-03T04:02:39;9.20;99.90
35129;DHT22;21301;43.626;10.580;2023-03-03T04:05:09;9.20;99.90
35129;DHT22;21301;43.626;10.580;2023-03-03T04:07:36;9.30;99.90
35129;DHT22;21301;43.626;10.580;2023-03-03T04:10:03;9.20;99.90
35129;DHT22;21301;43.626;10.580;2023-03-03T04:12:29;9.30;99.90
35129;DHT22;21301;43.626;10.580;2023-03-03T04:14:56;9.30;99.90
35129;DHT22;21301;43.626;10.580;2023-03-03T04:17:23;9.30;99.90
35129;DHT22;21301;43.626;10.580;2023-03-03T04:19:52;9.40;99.90
35129;DHT22;21301;43.626;10.580;2023-03-03T04:22:18;9.40;99.90
35129;DHT22;21301;43.626;10.580;2023-03-03T04:24:45;9.50;99.90
35129;DHT22;21301;43.626;10.580;2023-03-03T04:27:14;9.60;99.90
35129;DHT22;21301;43.626;10.580;2023-03-03T04:29:41;9.50;99.90
35129;DHT22;21301;43.626;10.580;2023-03-03T04:32:07;9.50;99.90
35129;DHT22;21301;43.626;10.580;2023-03-03T04:34:33;9.40;99.90
35129;DHT22;21301;43.626;10.580;2023-03-03T04:36:59;9.40;99.90
35129;DHT22;21301;43.626;10.580;2023-03-03T04:39:27;9.40;99.90
35129;DHT22;21301;43.626;10.580;2023-03-03T04:41:54;9.40;99.90
35129;DHT22;21301;43.626;10.580;2023-03-03T04:44:20;9.50;99.90
35129;DHT22;21301;43.626;10.580;2023-03-03T04:46:47;9.60;99.90
35129;DHT22;21301;43.626;10.580;2023-03-03T04:49:13;9.60;99.90
35129;DHT22;21301;43.626;10.580;2023-03-03T04:51:41;9.70;99.90
35129;DHT22;21301;43.626;10.580;2023-03-03T04:54:07;9.70;99.90
35129;DHT22;21301;43.626;10.580;2023-03-03T04:56:33;9.70;99.90
35129;DHT22;21301;43.626;10.580;2023-03-03T04:58:59;9.70;99.90
35129;DHT22;21301;43.626;10.580;2023-03-03T05:01:26;9.70;99.90
35129;DHT22;21301;43.626;10.580;2023-03-03T05:03:52;9.70;99.90
35129;DHT22;21301;43.626;10.580;2023-03-03T05:06:18;9.70;99.90
35129;DHT22;21301;43.626;10.580;2023-03-03T05:08:44;9.70;99.90
35129;DHT22;21301;43.626;10.580;2023-03-03T05:11:10;9.60;99.90
35129;DHT22;21301;43.626;10.580;2023-03-03T05:13:36;9.60;99.90
35129;DHT22;21301;43.626;10.580;2023-03-03T05:16:02;9.60;99.90
35129;DHT22;21301;43.626;10.580;2023-03-03T05:18:28;9.60;99.90
35129;DHT22;21301;43.626;10.580;2023-03-03T05:20:54;9.60;99.90
35129;DHT22;21301;43.626;10.580;2023-03-03T05:23:21;9.50;99.90
35129;DHT22;21301;43.626;10.580;2023-03-03T05:25:48;9.40;99.90
35129;DHT22;21301;43.626;10.580;2023-03-03T05:28:14;9.40;99.90
35129;DHT22;21301;43.626;10.580;2023-03-03T05:30:40;9.30;99.90
35129;DHT22;21301;43.626;10.580;2023-03-03T05:33:06;9.40;99.90
35129;DHT22;21301;43.626;10.580;2023-03-03T05:35:32;9.40;99.90
35129;DHT22;21301;43.626;10.580;2023-03-03T05:37:58;9.40;99.90
35129;DHT22;21301;43.626;10.580;2023-03-03T05:40:27;9.40;99.90
35129;DHT22;21301;43.626;10.580;2023-03-03T05:42:53;9.40;99.90
35129;DHT22;21301;43.626;10.580;2023-03-03T05:45:19;9.30;99.90
35129;DHT22;21301;43.626;10.580;2023-03-03T05:47:54;9.30;99.90
35129;DHT22;21301;43.626;10.580;2023-03-03T05:50:22;9.30;99.90
35129;DHT22;21301;43.626;10.580;2023-03-03T05:52:49;9.30;99.90
35129;DHT22;21301;43.626;10.580;2023-03-03T05:55:15;9.30;99.90
35129;DHT22;21301;43.626;10.580;2023-03-03T05:57:41;9.30;99.90
35129;DHT22;21301;43.626;10.580;2023-03-03T06:00:08;9.30;99.90
35129;DHT22;21301;43.626;10.580;2023-03-03T06:02:40;9.30;99.90
35129;DHT22;21301;43.626;10.580;2023-03-03T06:05:07;9.20;99.90
35129;DHT22;21301;43.626;10.580;2023-03-03T06:07:33;9.10;99.90
35129;DHT22;21301;43.626;10.580;2023-03-03T06:09:59;9.00;99.90
35129;DHT22;21301;43.626;10.580;2023-03-03T06:12:26;8.90;99.90
35129;DHT22;21301;43.626;10.580;2023-03-03T06:14:51;8.80;99.90
35129;DHT22;21301;43.626;10.580;2023-03-03T06:17:17;8.80;99.90
35129;DHT22;21301;43.626;10.580;2023-03-03T06:19:43;8.90;99.90
35129;DHT22;21301;43.626;10.580;2023-03-03T06:22:09;8.90;99.90
35129;DHT22;21301;43.626;10.580;2023-03-03T06:24:35;8.80;99.90
35129;DHT22;21301;43.626;10.580;2023-03-03T06:27:01;8.80;99.90
35129;DHT22;21301;43.626;10.580;2023-03-03T06:29:27;8.80;99.90
35129;DHT22;21301;43.626;10.580;2023-03-03T06:31:53;8.80;99.90
35129;DHT22;21301;43.626;10.580;2023-03-03T06:34:19;8.80;99.90
35129;DHT22;21301;43.626;10.580;2023-03-03T06:36:45;8.90;99.90
35129;DHT22;21301;43.626;10.580;2023-03-03T06:39:11;8.80;99.90
35129;DHT22;21301;43.626;10.580;2023-03-03T06:41:36;8.70;99.90
35129;DHT22;21301;43.626;10.580;2023-03-03T06:44:02;8.70;99.90
35129;DHT22;21301;43.626;10.580;2023-03-03T06:46:28;8.70;99.90
35129;DHT22;21301;43.626;10.580;2023-03-03T06:48:54;8.70;99.90
35129;DHT22;21301;43.626;10.580;2023-03-03T06:51:40;8.70;99.90
35129;DHT22;21301;43.626;10.580;2023-03-03T06:54:12;8.90;99.90
35129;DHT22;21301;43.626;10.580;2023-03-03T06:56:39;8.90;99.90
35129;DHT22;21301;43.626;10.580;2023-03-03T06:59:19;8.90;99.90
35129;DHT22;21301;43.626;10.580;2023-03-03T07:01:47;8.90;99.90
35129;DHT22;21301;43.626;10.580;2023-03-03T07:04:30;9.00;99.90
35129;DHT22;21301;43.626;10.580;2023-03-03T07:07:00;9.00;99.90
35129;DHT22;21301;43.626;10.580;2023-03-03T07:09:30;9.10;99.90
35129;DHT22;21301;43.626;10.580;2023-03-03T07:12:01;9.10;99.90
35129;DHT22;21301;43.626;10.580;2023-03-03T07:14:28;9.20;99.90
35129;DHT22;21301;43.626;10.580;2023-03-03T07:17:00;9.30;99.90
35129;DHT22;21301;43.626;10.580;2023-03-03T07:19:32;9.40;99.90
35129;DHT22;21301;43.626;10.580;2023-03-03T07:22:19;9.40;99.90
35129;DHT22;21301;43.626;10.580;2023-03-03T07:24:50;9.60;99.90
35129;DHT22;21301;43.626;10.580;2023-03-03T07:27:24;9.70;99.90
35129;DHT22;21301;43.626;10.580;2023-03-03T07:29:51;9.80;99.90
35129;DHT22;21301;43.626;10.580;2023-03-03T07:34:54;10.00;99.90
35129;DHT22;21301;43.626;10.580;2023-03-03T07:37:46;10.20;99.90
35129;DHT22;21301;43.626;10.580;2023-03-03T07:40:37;10.50;99.90
35129;DHT22;21301;43.626;10.580;2023-03-03T07:45:47;11.30;99.90
35129;DHT22;21301;43.626;10.580;2023-03-03T07:48:36;11.40;99.90
35129;DHT22;21301;43.626;10.580;2023-03-03T07:51:10;11.40;99.90
35129;DHT22;21301;43.626;10.580;2023-03-03T07:53:37;11.20;99.90
35129;DHT22;21301;43.626;10.580;2023-03-03T07:58:53;11.40;99.90
35129;DHT22;21301;43.626;10.580;2023-03-03T08:01:41;11.40;99.90
35129;DHT22;21301;43.626;10.580;2023-03-03T08:07:02;11.60;99.90
35129;DHT22;21301;43.626;10.580;2023-03-03T08:09:56;11.70;99.90
35129;DHT22;21301;43.626;10.580;2023-03-03T08:15:27;11.70;99.90
35129;DHT22;21301;43.626;10.580;2023-03-03T08:17:55;11.80;99.90
35129;DHT22;21301;43.626;10.580;2023-03-03T08:20:41;11.80;99.90
35129;DHT22;21301;43.626;10.580;2023-03-03T08:23:09;11.90;99.90
35129;DHT22;21301;43.626;10.580;2023-03-03T08:25:35;11.80;99.90
35129;DHT22;21301;43.626;10.580;2023-03-03T08:28:01;12.00;99.90
35129;DHT22;21301;43.626;10.580;2023-03-03T08:30:27;12.30;99.90
35129;DHT22;21301;43.626;10.580;2023-03-03T08:32:52;12.60;99.90
35129;DHT22;21301;43.626;10.580;2023-03-03T08:35:18;12.80;99.90
35129;DHT22;21301;43.626;10.580;2023-03-03T08:37:44;13.30;99.90
35129;DHT22;21301;43.626;10.580;2023-03-03T08:40:12;13.00;99.90
35129;DHT22;21301;43.626;10.580;2023-03-03T08:42:38;14.20;99.90
35129;DHT22;21301;43.626;10.580;2023-03-03T08:45:04;15.10;99.90
35129;DHT22;21301;43.626;10.580;2023-03-03T08:47:30;15.30;99.90
35129;DHT22;21301;43.626;10.580;2023-03-03T08:49:56;14.60;99.90
35129;DHT22;21301;43.626;10.580;2023-03-03T08:52:22;14.90;99.90
35129;DHT22;21301;43.626;10.580;2023-03-03T08:54:48;15.20;99.90
35129;DHT22;21301;43.626;10.580;2023-03-03T08:57:13;15.10;99.90
35129;DHT22;21301;43.626;10.580;2023-03-03T08:59:39;15.10;99.90
35129;DHT22;21301;43.626;10.580;2023-03-03T09:02:06;15.40;99.90
35129;DHT22;21301;43.626;10.580;2023-03-03T09:04:31;15.60;99.90
35129;DHT22;21301;43.626;10.580;2023-03-03T09:06:57;15.90;99.90
35129;DHT22;21301;43.626;10.580;2023-03-03T09:09:23;16.50;99.90
35129;DHT22;21301;43.626;10.580;2023-03-03T09:11:49;16.90;99.90
35129;DHT22;21301;43.626;10.580;2023-03-03T09:14:18;16.90;99.90
35129;DHT22;21301;43.626;10.580;2023-03-03T09:16:53;16.30;99.90
35129;DHT22;21301;43.626;10.580;2023-03-03T09:19:29;16.10;99.90
35129;DHT22;21301;43.626;10.580;2023-03-03T09:24:42;15.80;99.90
35129;DHT22;21301;43.626;10.580;2023-03-03T09:27:31;15.90;99.90
35129;DHT22;21301;43.626;10.580;2023-03-03T09:32:57;16.40;99.90
35129;DHT22;21301;43.626;10.580;2023-03-03T09:35:35;16.40;99.90
35129;DHT22;21301;43.626;10.580;2023-03-03T09:38:29;16.20;99.90
35129;DHT22;21301;43.626;10.580;2023-03-03T09:41:15;16.00;99.90
35129;DHT22;21301;43.626;10.580;2023-03-03T09:44:29;15.90;99.90
35129;DHT22;21301;43.626;10.580;2023-03-03T09:52:54;15.70;99.90
35129;DHT22;21301;43.626;10.580;2023-03-03T09:55:41;15.50;99.90
35129;DHT22;21301;43.626;10.580;2023-03-03T10:06:28;14.50;99.90
35129;DHT22;21301;43.626;10.580;2023-03-03T10:17:18;14.90;99.90
35129;DHT22;21301;43.626;10.580;2023-03-03T10:30:38;15.40;99.90
35129;DHT22;21301;43.626;10.580;2023-03-03T10:33:15;15.80;99.90
35129;DHT22;21301;43.626;10.580;2023-03-03T10:38:44;15.70;99.90
35129;DHT22;21301;43.626;10.580;2023-03-03T10:41:39;15.50;99.90
35129;DHT22;21301;43.626;10.580;2023-03-03T10:52:43;15.80;99.90
35129;DHT22;21301;43.626;10.580;2023-03-03T10:55:26;16.00;99.90
35129;DHT22;21301;43.626;10.580;2023-03-03T11:24:15;15.70;99.70
35129;DHT22;21301;43.626;10.580;2023-03-03T11:37:23;15.20;99.90
35129;DHT22;21301;43.626;10.580;2023-03-03T11:39:54;15.20;99.90
35129;DHT22;21301;43.626;10.580;2023-03-03T11:48:01;15.10;99.90
35129;DHT22;21301;43.626;10.580;2023-03-03T11:50:38;15.10;99.90
35129;DHT22;21301;43.626;10.580;2023-03-03T11:56:47;15.10;99.90
35129;DHT22;21301;43.626;10.580;2023-03-03T12:02:22;15.10;99.90
35129;DHT22;21301;43.626;10.580;2023-03-03T12:05:08;15.00;99.90
35129;DHT22;21301;43.626;10.580;2023-03-03T12:12:45;14.90;99.90
35129;DHT22;21301;43.626;10.580;2023-03-03T12:26:17;15.40;99.90
35129;DHT22;21301;43.626;10.580;2023-03-03T12:29:01;15.40;99.90
35129;DHT22;21301;43.626;10.580;2023-03-03T12:37:18;15.50;99.90
35129;DHT22;21301;43.626;10.580;2023-03-03T12:45:26;15.80;99.90
35129;DHT22;21301;43.626;10.580;2023-03-03T12:50:52;16.00;99.60
35129;DHT22;21301;43.626;10.580;2023-03-03T12:53:36;15.70;99.40
35129;DHT22;21301;43.626;10.580;2023-03-03T12:56:07;15.60;99.90
35129;DHT22;21301;43.626;10.580;2023-03-03T13:01:27;15.70;99.50
35129;DHT22;21301;43.626;10.580;2023-03-03T13:06:51;15.70;99.40
35129;DHT22;21301;43.626;10.580;2023-03-03T13:25:54;15.90;98.70
35129;DHT22;21301;43.626;10.580;2023-03-03T13:28:35;16.00;99.10
35129;DHT22;21301;43.626;10.580;2023-03-03T13:31:11;15.90;98.50
35129;DHT22;21301;43.626;10.580;2023-03-03T13:33:43;16.10;98.70
35129;DHT22;21301;43.626;10.580;2023-03-03T13:36:16;16.20;98.50
35129;DHT22;21301;43.626;10.580;2023-03-03T13:38:59;16.10;98.20
35129;DHT22;21301;43.626;10.580;2023-03-03T13:44:02;16.10;98.20
35129;DHT22;21301;43.626;10.580;2023-03-03T13:52:30;16.40;98.10
35129;DHT22;21301;43.626;10.580;2023-03-03T13:55:08;16.30;97.70
35129;DHT22;21301;43.626;10.580;2023-03-03T13:57:49;16.40;98.20
35129;DHT22;21301;43.626;10.580;2023-03-03T14:05:51;16.20;98.80
35129;DHT22;21301;43.626;10.580;2023-03-03T14:08:38;16.30;98.70
35129;DHT22;21301;43.626;10.580;2023-03-03T14:24:18;16.20;97.70
35129;DHT22;21301;43.626;10.580;2023-03-03T14:26:52;16.10;97.90
35129;DHT22;21301;43.626;10.580;2023-03-03T14:29:30;16.10;97.20
35129;DHT22;21301;43.626;10.580;2023-03-03T14:32:02;16.20;97.80
35129;DHT22;21301;43.626;10.580;2023-03-03T14:34:44;16.20;98.00
35129;DHT22;21301;43.626;10.580;2023-03-03T14:37:25;16.20;97.90
35129;DHT22;21301;43.626;10.580;2023-03-03T14:42:47;16.20;97.50
35129;DHT22;21301;43.626;10.580;2023-03-03T14:45:38;16.40;98.20
35129;DHT22;21301;43.626;10.580;2023-03-03T14:48:24;16.20;97.20
35129;DHT22;21301;43.626;10.580;2023-03-03T14:50:59;16.00;96.90
35129;DHT22;21301;43.626;10.580;2023-03-03T14:53:44;16.10;97.20
35129;DHT22;21301;43.626;10.580;2023-03-03T14:56:52;16.10;97.50
35129;DHT22;21301;43.626;10.580;2023-03-03T14:59:22;16.20;97.20
35129;DHT22;21301;43.626;10.580;2023-03-03T15:04:45;16.20;97.40
35129;DHT22;21301;43.626;10.580;2023-03-03T15:07:32;16.20;97.20
35129;DHT22;21301;43.626;10.580;2023-03-03T15:09:59;16.10;97.60
35129;DHT22;21301;43.626;10.580;2023-03-03T15:12:39;16.10;97.70
35129;DHT22;21301;43.626;10.580;2023-03-03T15:17:37;16.00;97.60
35129;DHT22;21301;43.626;10.580;2023-03-03T15:23:18;15.90;97.30
35129;DHT22;21301;43.626;10.580;2023-03-03T15:28:42;16.00;97.30
35129;DHT22;21301;43.626;10.580;2023-03-03T15:37:28;15.90;96.90
35129;DHT22;21301;43.626;10.580;2023-03-03T15:40:26;15.80;97.30
35129;DHT22;21301;43.626;10.580;2023-03-03T15:43:05;15.70;96.80
35129;DHT22;21301;43.626;10.580;2023-03-03T15:56:49;15.30;97.90
35129;DHT22;21301;43.626;10.580;2023-03-03T16:02:24;15.20;98.00
35129;DHT22;21301;43.626;10.580;2023-03-03T16:05:11;15.10;97.70
35129;DHT22;21301;43.626;10.580;2023-03-03T16:07:59;15.10;97.70
35129;DHT22;21301;43.626;10.580;2023-03-03T16:13:58;14.80;98.50
35129;DHT22;21301;43.626;10.580;2023-03-03T16:24:56;14.30;98.50
35129;DHT22;21301;43.626;10.580;2023-03-03T16:30:38;14.20;99.10
35129;DHT22;21301;43.626;10.580;2023-03-03T16:38:48;14.00;99.60
35129;DHT22;21301;43.626;10.580;2023-03-03T16:41:28;14.00;99.60
35129;DHT22;21301;43.626;10.580;2023-03-03T16:53:17;13.90;99.90
35129;DHT22;21301;43.626;10.580;2023-03-03T16:56:04;13.80;99.90
35129;DHT22;21301;43.626;10.580;2023-03-03T16:58:50;13.80;99.90
35129;DHT22;21301;43.626;10.580;2023-03-03T17:03:49;13.60;99.70
35129;DHT22;21301;43.626;10.580;2023-03-03T17:06:44;13.50;99.70
35129;DHT22;21301;43.626;10.580;2023-03-03T17:17:58;13.20;99.90
35129;DHT22;21301;43.626;10.580;2023-03-03T17:26:19;13.10;99.90
35129;DHT22;21301;43.626;10.580;2023-03-03T17:34:15;12.80;99.90
35129;DHT22;21301;43.626;10.580;2023-03-03T17:39:38;12.70;99.90
35129;DHT22;21301;43.626;10.580;2023-03-03T17:42:30;12.70;99.90
35129;DHT22;21301;43.626;10.580;2023-03-03T17:45:09;12.60;99.90
35129;DHT22;21301;43.626;10.580;2023-03-03T17:47:45;12.60;99.90
35129;DHT22;21301;43.626;10.580;2023-03-03T17:50:35;12.60;99.90
35129;DHT22;21301;43.626;10.580;2023-03-03T17:53:32;12.50;99.90
35129;DHT22;21301;43.626;10.580;2023-03-03T18:18:02;12.30;99.90
35129;DHT22;21301;43.626;10.580;2023-03-03T18:25:59;12.10;99.90
35129;DHT22;21301;43.626;10.580;2023-03-03T18:28:45;12.10;99.90
35129;DHT22;21301;43.626;10.580;2023-03-03T18:31:26;12.00;99.90
35129;DHT22;21301;43.626;10.580;2023-03-03T18:38:56;11.90;99.90
35129;DHT22;21301;43.626;10.580;2023-03-03T18:41:26;11.90;99.90
35129;DHT22;21301;43.626;10.580;2023-03-03T18:43:55;11.90;99.90
35129;DHT22;21301;43.626;10.580;2023-03-03T18:49:05;11.90;99.90
35129;DHT22;21301;43.626;10.580;2023-03-03T18:54:00;11.90;99.90
35129;DHT22;21301;43.626;10.580;2023-03-03T18:56:43;11.90;99.90
35129;DHT22;21301;43.626;10.580;2023-03-03T18:59:17;12.00;99.90
35129;DHT22;21301;43.626;10.580;2023-03-03T19:07:25;11.30;99.90
35129;DHT22;21301;43.626;10.580;2023-03-03T19:09:58;11.00;99.90
35129;DHT22;21301;43.626;10.580;2023-03-03T19:18:22;11.00;99.90
35129;DHT22;21301;43.626;10.580;2023-03-03T19:20:57;11.20;99.90
35129;DHT22;21301;43.626;10.580;2023-03-03T19:29:10;11.60;99.90
35129;DHT22;21301;43.626;10.580;2023-03-03T19:37:08;11.90;99.90
35129;DHT22;21301;43.626;10.580;2023-03-03T19:39:44;12.00;99.90
35129;DHT22;21301;43.626;10.580;2023-03-03T19:48:39;12.20;99.90
35129;DHT22;21301;43.626;10.580;2023-03-03T19:51:18;12.20;99.90
35129;DHT22;21301;43.626;10.580;2023-03-03T19:56:36;12.30;99.90
35129;DHT22;21301;43.626;10.580;2023-03-03T19:59:08;12.30;99.90
35129;DHT22;21301;43.626;10.580;2023-03-03T20:01:49;12.30;99.90
35129;DHT22;21301;43.626;10.580;2023-03-03T20:07:31;12.20;99.90
35129;DHT22;21301;43.626;10.580;2023-03-03T20:37:13;10.60;99.90
35129;DHT22;21301;43.626;10.580;2023-03-03T20:47:49;9.90;99.90
35129;DHT22;21301;43.626;10.580;2023-03-03T20:56:18;10.10;99.90
35129;DHT22;21301;43.626;10.580;2023-03-03T21:06:44;10.40;99.90
35129;DHT22;21301;43.626;10.580;2023-03-03T21:09:31;10.20;99.90
35129;DHT22;21301;43.626;10.580;2023-03-03T21:12:00;10.20;99.90
35129;DHT22;21301;43.626;10.580;2023-03-03T21:14:28;9.80;99.90
35129;DHT22;21301;43.626;10.580;2023-03-03T21:16:57;10.10;99.90
35129;DHT22;21301;43.626;10.580;2023-03-03T21:21:51;10.20;99.90
35129;DHT22;21301;43.626;10.580;2023-03-03T21:24:17;9.70;99.90
35129;DHT22;21301;43.626;10.580;2023-03-03T21:26:53;9.30;99.90
35129;DHT22;21301;43.626;10.580;2023-03-03T21:29:34;9.20;99.90
35129;DHT22;21301;43.626;10.580;2023-03-03T21:32:05;8.90;99.90
35129;DHT22;21301;43.626;10.580;2023-03-03T21:34:34;8.90;99.90
35129;DHT22;21301;43.626;10.580;2023-03-03T21:37:06;8.90;99.90
35129;DHT22;21301;43.626;10.580;2023-03-03T21:39:34;8.90;99.90
35129;DHT22;21301;43.626;10.580;2023-03-03T21:42:03;8.70;99.90
35129;DHT22;21301;43.626;10.580;2023-03-03T21:47:04;8.90;99.90
35129;DHT22;21301;43.626;10.580;2023-03-03T21:49:31;9.10;99.90
35129;DHT22;21301;43.626;10.580;2023-03-03T21:51:58;9.00;99.90
35129;DHT22;21301;43.626;10.580;2023-03-03T21:54:24;9.10;99.90
35129;DHT22;21301;43.626;10.580;2023-03-03T21:56:50;9.10;99.90
35129;DHT22;21301;43.626;10.580;2023-03-03T21:59:17;9.30;99.90
35129;DHT22;21301;43.626;10.580;2023-03-03T22:01:43;9.20;99.90
35129;DHT22;21301;43.626;10.580;2023-03-03T22:04:09;9.30;99.90
35129;DHT22;21301;43.626;10.580;2023-03-03T22:06:35;9.40;99.90
35129;DHT22;21301;43.626;10.580;2023-03-03T22:09:05;9.40;99.90
35129;DHT22;21301;43.626;10.580;2023-03-03T22:11:32;9.50;99.90
35129;DHT22;21301;43.626;10.580;2023-03-03T22:13:58;9.60;99.90
35129;DHT22;21301;43.626;10.580;2023-03-03T22:16:24;9.40;99.90
35129;DHT22;21301;43.626;10.580;2023-03-03T22:18:50;9.70;99.90
35129;DHT22;21301;43.626;10.580;2023-03-03T22:21:16;9.70;99.90
35129;DHT22;21301;43.626;10.580;2023-03-03T22:23:42;9.90;99.90
35129;DHT22;21301;43.626;10.580;2023-03-03T22:26:08;9.70;99.90
35129;DHT22;21301;43.626;10.580;2023-03-03T22:28:37;9.60;99.90
35129;DHT22;21301;43.626;10.580;2023-03-03T22:31:03;9.90;99.90
35129;DHT22;21301;43.626;10.580;2023-03-03T22:33:29;10.10;99.90
35129;DHT22;21301;43.626;10.580;2023-03-03T22:35:54;10.10;99.90
35129;DHT22;21301;43.626;10.580;2023-03-03T22:38:20;9.60;99.90
35129;DHT22;21301;43.626;10.580;2023-03-03T22:40:48;9.50;99.90
35129;DHT22;21301;43.626;10.580;2023-03-03T22:43:13;8.80;99.90
35129;DHT22;21301;43.626;10.580;2023-03-03T22:45:39;8.50;99.90
35129;DHT22;21301;43.626;10.580;2023-03-03T22:48:06;8.50;99.90
35129;DHT22;21301;43.626;10.580;2023-03-03T22:50:32;8.20;99.90
35129;DHT22;21301;43.626;10.580;2023-03-03T22:53:05;8.00;99.90
35129;DHT22;21301;43.626;10.580;2023-03-03T22:55:30;8.00;99.90
35129;DHT22;21301;43.626;10.580;2023-03-03T22:57:59;7.90;99.90